sensor_id;sensor_type;location;lat;lon;timestamp;temperature;humidity
52459;DHT22;38372;52.902;6.024;2023-05-07T00:00:43;13.70;99.90
52459;DHT22;38372;52.902;6.024;2023-05-07T00:03:09;13.70;99.90
52459;DHT22;38372;52.902;6.024;2023-05-07T00:05:34;13.70;99.90
52459;DHT22;38372;52.902;6.024;2023-05-07T00:08:01;13.70;99.90
52459;DHT22;38372;52.902;6.024;2023-05-07T00:10:27;13.70;99.90
52459;DHT22;38372;52.902;6.024;2023-05-07T00:12:53;13.70;99.90
52459;DHT22;38372;52.902;6.024;2023-05-07T00:15:18;13.70;99.90
52459;DHT22;38372;52.902;6.024;2023-05-07T00:17:44;13.70;99.90
52459;DHT22;38372;52.902;6.024;2023-05-07T00:20:10;13.70;99.90
52459;DHT22;38372;52.902;6.024;2023-05-07T00:22:36;13.70;99.90
52459;DHT22;38372;52.902;6.024;2023-05-07T00:25:02;13.70;99.90
52459;DHT22;38372;52.902;6.024;2023-05-07T00:27:28;13.70;99.90
52459;DHT22;38372;52.902;6.024;2023-05-07T00:29:54;13.70;99.90
52459;DHT22;38372;52.902;6.024;2023-05-07T00:32:19;13.70;99.90
52459;DHT22;38372;52.902;6.024;2023-05-07T00:34:45;13.70;99.90
52459;DHT22;38372;52.902;6.024;2023-05-07T00:37:11;13.70;99.90
52459;DHT22;38372;52.902;6.024;2023-05-07T00:39:37;13.70;99.90
52459;DHT22;38372;52.902;6.024;2023-05-07T00:42:04;13.70;99.90
52459;DHT22;38372;52.902;6.024;2023-05-07T00:44:29;13.70;99.90
52459;DHT22;38372;52.902;6.024;2023-05-07T00:46:57;13.70;99.90
52459;DHT22;38372;52.902;6.024;2023-05-07T00:49:30;13.70;99.90
52459;DHT22;38372;52.902;6.024;2023-05-07T00:51:58;13.70;99.90
52459;DHT22;38372;52.902;6.024;2023-05-07T00:54:26;13.70;99.90
52459;DHT22;38372;52.902;6.024;2023-05-07T00:56:52;13.70;99.90
52459;DHT22;38372;52.902;6.024;2023-05-07T00:59:18;13.70;99.90
52459;DHT22;38372;52.902;6.024;2023-05-07T01:01:44;13.70;99.90
52459;DHT22;38372;52.902;6.024;2023-05-07T01:04:10;13.70;99.90
52459;DHT22;38372;52.902;6.024;2023-05-07T01:06:36;13.70;99.90
52459;DHT22;38372;52.902;6.024;2023-05-07T01:09:02;13.60;99.90
52459;DHT22;38372;52.902;6.024;2023-05-07T01:11:30;13.60;99.90
52459;DHT22;38372;52.902;6.024;2023-05-07T01:13:58;13.60;99.90
52459;DHT22;38372;52.902;6.024;2023-05-07T01:16:24;13.60;99.90
52459;DHT22;38372;52.902;6.024;2023-05-07T01:18:50;13.50;99.90
52459;DHT22;38372;52.902;6.024;2023-05-07T01:21:17;13.50;99.90
52459;DHT22;38372;52.902;6.024;2023-05-07T01:23:44;13.50;99.90
52459;DHT22;38372;52.902;6.024;2023-05-07T01:26:10;13.50;99.90
52459;DHT22;38372;52.902;6.024;2023-05-07T01:28:36;13.50;99.90
52459;DHT22;38372;52.902;6.024;2023-05-07T01:31:03;13.50;99.90
52459;DHT22;38372;52.902;6.024;2023-05-07T01:33:32;13.40;99.90
52459;DHT22;38372;52.902;6.024;2023-05-07T01:35:59;13.40;99.90
52459;DHT22;38372;52.902;6.024;2023-05-07T01:38:30;13.40;99.90
52459;DHT22;38372;52.902;6.024;2023-05-07T01:40:56;13.40;99.90
52459;DHT22;38372;52.902;6.024;2023-05-07T01:43:23;13.40;99.90
52459;DHT22;38372;52.902;6.024;2023-05-07T01:45:49;13.40;99.90
52459;DHT22;38372;52.902;6.024;2023-05-07T01:48:15;13.40;99.90
52459;DHT22;38372;52.902;6.024;2023-05-07T01:50:44;13.40;99.90
52459;DHT22;38372;52.902;6.024;2023-05-07T01:53:10;13.40;99.90
52459;DHT22;38372;52.902;6.024;2023-05-07T01:55:36;13.40;99.90
52459;DHT22;38372;52.902;6.024;2023-05-07T01:58:05;13.30;99.90
52459;DHT22;38372;52.902;6.024;2023-05-07T02:00:31;13.30;99.90
52459;DHT22;38372;52.902;6.024;2023-05-07T02:02:57;13.30;99.90
52459;DHT22;38372;52.902;6.024;2023-05-07T02:05:23;13.30;99.90
52459;DHT22;38372;52.902;6.024;2023-05-07T02:07:49;13.30;99.90
52459;DHT22;38372;52.902;6.024;2023-05-07T02:10:15;13.30;99.90
52459;DHT22;38372;52.902;6.024;2023-05-07T02:12:41;13.30;99.90
52459;DHT22;38372;52.902;6.024;2023-05-07T02:15:08;13.30;99.90
52459;DHT22;38372;52.902;6.024;2023-05-07T02:17:34;13.20;99.90
52459;DHT22;38372;52.902;6.024;2023-05-07T02:20:00;13.20;99.90
52459;DHT22;38372;52.902;6.024;2023-05-07T02:22:26;13.20;99.90
52459;DHT22;38372;52.902;6.024;2023-05-07T02:24:52;13.20;99.90
52459;DHT22;38372;52.902;6.024;2023-05-07T02:27:18;13.10;99.90
52459;DHT22;38372;52.902;6.024;2023-05-07T02:29:43;13.20;99.90
52459;DHT22;38372;52.902;6.024;2023-05-07T02:32:09;13.10;99.90
52459;DHT22;38372;52.902;6.024;2023-05-07T02:34:35;13.10;99.90
52459;DHT22;38372;52.902;6.024;2023-05-07T02:37:01;13.00;99.90
52459;DHT22;38372;52.902;6.024;2023-05-07T02:39:27;13.00;99.90
52459;DHT22;38372;52.902;6.024;2023-05-07T02:41:53;12.90;99.90
52459;DHT22;38372;52.902;6.024;2023-05-07T02:44:19;12.90;99.90
52459;DHT22;38372;52.902;6.024;2023-05-07T02:46:44;12.90;99.90
52459;DHT22;38372;52.902;6.024;2023-05-07T02:49:10;12.90;99.90
52459;DHT22;38372;52.902;6.024;2023-05-07T02:51:36;12.90;99.90
52459;DHT22;38372;52.902;6.024;2023-05-07T02:54:02;12.80;99.90
52459;DHT22;38372;52.902;6.024;2023-05-07T02:56:28;12.80;99.90
52459;DHT22;38372;52.902;6.024;2023-05-07T02:58:54;12.80;99.90
52459;DHT22;38372;52.902;6.024;2023-05-07T03:01:19;12.70;99.90
52459;DHT22;38372;52.902;6.024;2023-05-07T03:03:46;12.70;99.90
52459;DHT22;38372;52.902;6.024;2023-05-07T03:06:12;12.70;99.90
52459;DHT22;38372;52.902;6.024;2023-05-07T03:08:37;12.60;99.90
52459;DHT22;38372;52.902;6.024;2023-05-07T03:11:03;12.60;99.90
52459;DHT22;38372;52.902;6.024;2023-05-07T03:13:29;12.50;99.90
52459;DHT22;38372;52.902;6.024;2023-05-07T03:15:55;12.50;99.90
52459;DHT22;38372;52.902;6.024;2023-05-07T03:18:21;12.50;99.90
52459;DHT22;38372;52.902;6.024;2023-05-07T03:20:48;12.40;99.90
52459;DHT22;38372;52.902;6.024;2023-05-07T03:23:14;12.40;99.90
52459;DHT22;38372;52.902;6.024;2023-05-07T03:25:40;12.40;99.90
52459;DHT22;38372;52.902;6.024;2023-05-07T03:28:05;12.30;99.90
52459;DHT22;38372;52.902;6.024;2023-05-07T03:30:31;12.30;99.90
52459;DHT22;38372;52.902;6.024;2023-05-07T03:32:58;12.30;99.90
52459;DHT22;38372;52.902;6.024;2023-05-07T03:35:24;12.20;99.90
52459;DHT22;38372;52.902;6.024;2023-05-07T03:37:49;12.20;99.90
52459;DHT22;38372;52.902;6.024;2023-05-07T03:40:16;12.10;99.90
52459;DHT22;38372;52.902;6.024;2023-05-07T03:42:42;12.10;99.90
52459;DHT22;38372;52.902;6.024;2023-05-07T03:45:08;12.10;99.90
52459;DHT22;38372;52.902;6.024;2023-05-07T03:47:34;12.10;99.90
52459;DHT22;38372;52.902;6.024;2023-05-07T03:49:59;12.00;99.90
52459;DHT22;38372;52.902;6.024;2023-05-07T03:52:25;12.00;99.90
52459;DHT22;38372;52.902;6.024;2023-05-07T03:54:52;12.00;99.90
52459;DHT22;38372;52.902;6.024;2023-05-07T03:57:19;12.00;99.90
52459;DHT22;38372;52.902;6.024;2023-05-07T03:59:45;11.90;99.90
52459;DHT22;38372;52.902;6.024;2023-05-07T04:02:11;11.90;99.90
52459;DHT22;38372;52.902;6.024;2023-05-07T04:04:37;11.80;99.90
52459;DHT22;38372;52.902;6.024;2023-05-07T04:07:02;11.80;99.90
52459;DHT22;38372;52.902;6.024;2023-05-07T04:09:28;11.80;99.90
52459;DHT22;38372;52.902;6.024;2023-05-07T04:11:54;11.80;99.90
52459;DHT22;38372;52.902;6.024;2023-05-07T04:14:20;11.80;99.90
52459;DHT22;38372;52.902;6.024;2023-05-07T04:16:46;11.80;99.90
52459;DHT22;38372;52.902;6.024;2023-05-07T04:19:11;11.80;99.90
52459;DHT22;38372;52.902;6.024;2023-05-07T04:21:37;11.80;99.90
52459;DHT22;38372;52.902;6.024;2023-05-07T04:24:03;11.80;99.90
52459;DHT22;38372;52.902;6.024;2023-05-07T04:26:29;11.80;99.90
52459;DHT22;38372;52.902;6.024;2023-05-07T04:28:55;11.80;99.90
52459;DHT22;38372;52.902;6.024;2023-05-07T04:31:22;11.70;99.90
52459;DHT22;38372;52.902;6.024;2023-05-07T04:33:47;11.70;99.90
52459;DHT22;38372;52.902;6.024;2023-05-07T04:36:13;11.70;99.90
52459;DHT22;38372;52.902;6.024;2023-05-07T04:38:39;11.70;99.90
52459;DHT22;38372;52.902;6.024;2023-05-07T04:41:06;11.70;99.90
52459;DHT22;38372;52.902;6.024;2023-05-07T04:43:32;11.70;99.90
52459;DHT22;38372;52.902;6.024;2023-05-07T04:45:58;11.70;99.90
52459;DHT22;38372;52.902;6.024;2023-05-07T04:48:24;11.70;99.90
52459;DHT22;38372;52.902;6.024;2023-05-07T04:50:50;11.70;99.90
52459;DHT22;38372;52.902;6.024;2023-05-07T04:53:17;11.70;99.90
52459;DHT22;38372;52.902;6.024;2023-05-07T04:55:43;11.70;99.90
52459;DHT22;38372;52.902;6.024;2023-05-07T04:58:10;11.70;99.90
52459;DHT22;38372;52.902;6.024;2023-05-07T05:00:37;11.70;99.90
52459;DHT22;38372;52.902;6.024;2023-05-07T05:03:04;11.70;99.90
52459;DHT22;38372;52.902;6.024;2023-05-07T05:05:30;11.70;99.90
52459;DHT22;38372;52.902;6.024;2023-05-07T05:07:56;11.70;99.90
52459;DHT22;38372;52.902;6.024;2023-05-07T05:10:22;11.60;99.90
52459;DHT22;38372;52.902;6.024;2023-05-07T05:12:48;11.70;99.90
52459;DHT22;38372;52.902;6.024;2023-05-07T05:15:14;11.70;99.90
52459;DHT22;38372;52.902;6.024;2023-05-07T05:17:40;11.70;99.90
52459;DHT22;38372;52.902;6.024;2023-05-07T05:20:06;11.70;99.90
52459;DHT22;38372;52.902;6.024;2023-05-07T05:22:32;11.70;99.90
52459;DHT22;38372;52.902;6.024;2023-05-07T05:24:58;11.80;99.90
52459;DHT22;38372;52.902;6.024;2023-05-07T05:27:24;11.80;99.90
52459;DHT22;38372;52.902;6.024;2023-05-07T05:29:50;11.80;99.90
52459;DHT22;38372;52.902;6.024;2023-05-07T05:32:16;11.80;99.90
52459;DHT22;38372;52.902;6.024;2023-05-07T05:34:41;11.80;99.90
52459;DHT22;38372;52.902;6.024;2023-05-07T05:37:07;11.80;99.90
52459;DHT22;38372;52.902;6.024;2023-05-07T05:39:33;11.80;99.90
52459;DHT22;38372;52.902;6.024;2023-05-07T05:41:59;11.80;99.90
52459;DHT22;38372;52.902;6.024;2023-05-07T05:44:25;11.80;99.90
52459;DHT22;38372;52.902;6.024;2023-05-07T05:46:51;11.70;99.90
52459;DHT22;38372;52.902;6.024;2023-05-07T05:49:17;11.70;99.90
52459;DHT22;38372;52.902;6.024;2023-05-07T05:51:43;11.70;99.90
52459;DHT22;38372;52.902;6.024;2023-05-07T05:54:09;11.80;99.90
52459;DHT22;38372;52.902;6.024;2023-05-07T05:56:36;11.80;99.90
52459;DHT22;38372;52.902;6.024;2023-05-07T05:59:02;11.80;99.90
52459;DHT22;38372;52.902;6.024;2023-05-07T06:01:28;11.80;99.90
52459;DHT22;38372;52.902;6.024;2023-05-07T06:03:53;11.80;99.90
52459;DHT22;38372;52.902;6.024;2023-05-07T06:06:19;11.90;99.90
52459;DHT22;38372;52.902;6.024;2023-05-07T06:08:45;12.00;99.90
52459;DHT22;38372;52.902;6.024;2023-05-07T06:11:11;12.00;99.90
52459;DHT22;38372;52.902;6.024;2023-05-07T06:13:37;12.00;99.90
52459;DHT22;38372;52.902;6.024;2023-05-07T06:16:03;12.10;99.90
52459;DHT22;38372;52.902;6.024;2023-05-07T06:18:29;12.10;99.90
52459;DHT22;38372;52.902;6.024;2023-05-07T06:20:55;12.10;99.90
52459;DHT22;38372;52.902;6.024;2023-05-07T06:23:20;12.20;99.90
52459;DHT22;38372;52.902;6.024;2023-05-07T06:25:50;12.20;99.90
52459;DHT22;38372;52.902;6.024;2023-05-07T06:28:17;12.30;99.90
52459;DHT22;38372;52.902;6.024;2023-05-07T06:30:43;12.30;99.90
52459;DHT22;38372;52.902;6.024;2023-05-07T06:33:08;12.40;99.90
52459;DHT22;38372;52.902;6.024;2023-05-07T06:35:34;12.40;99.90
52459;DHT22;38372;52.902;6.024;2023-05-07T06:38:00;12.40;99.90
52459;DHT22;38372;52.902;6.024;2023-05-07T06:40:27;12.50;99.90
52459;DHT22;38372;52.902;6.024;2023-05-07T06:42:53;12.50;99.90
52459;DHT22;38372;52.902;6.024;2023-05-07T06:45:19;12.60;99.90
52459;DHT22;38372;52.902;6.024;2023-05-07T06:47:45;12.60;99.90
52459;DHT22;38372;52.902;6.024;2023-05-07T06:50:11;12.70;99.90
52459;DHT22;38372;52.902;6.024;2023-05-07T06:52:37;12.80;99.90
52459;DHT22;38372;52.902;6.024;2023-05-07T06:55:03;12.90;99.90
52459;DHT22;38372;52.902;6.024;2023-05-07T06:57:29;12.90;99.90
52459;DHT22;38372;52.902;6.024;2023-05-07T06:59:55;13.00;99.90
52459;DHT22;38372;52.902;6.024;2023-05-07T07:02:21;13.00;99.90
52459;DHT22;38372;52.902;6.024;2023-05-07T07:04:47;13.00;99.90
52459;DHT22;38372;52.902;6.024;2023-05-07T07:07:13;13.10;99.90
52459;DHT22;38372;52.902;6.024;2023-05-07T07:09:38;13.10;99.90
52459;DHT22;38372;52.902;6.024;2023-05-07T07:12:04;13.10;99.90
52459;DHT22;38372;52.902;6.024;2023-05-07T07:14:30;13.10;99.90
52459;DHT22;38372;52.902;6.024;2023-05-07T07:16:56;13.10;99.90
52459;DHT22;38372;52.902;6.024;2023-05-07T07:19:22;13.10;99.90
52459;DHT22;38372;52.902;6.024;2023-05-07T07:21:48;13.10;99.90
52459;DHT22;38372;52.902;6.024;2023-05-07T07:24:14;13.20;99.90
52459;DHT22;38372;52.902;6.024;2023-05-07T07:26:44;13.30;99.90
52459;DHT22;38372;52.902;6.024;2023-05-07T07:29:10;13.40;99.90
52459;DHT22;38372;52.902;6.024;2023-05-07T07:31:36;13.50;99.90
52459;DHT22;38372;52.902;6.024;2023-05-07T07:34:02;13.60;99.90
52459;DHT22;38372;52.902;6.024;2023-05-07T07:36:27;13.70;99.90
52459;DHT22;38372;52.902;6.024;2023-05-07T07:38:53;13.80;99.90
52459;DHT22;38372;52.902;6.024;2023-05-07T07:41:19;13.90;99.90
52459;DHT22;38372;52.902;6.024;2023-05-07T07:43:45;14.00;99.90
52459;DHT22;38372;52.902;6.024;2023-05-07T07:46:12;14.10;99.90
52459;DHT22;38372;52.902;6.024;2023-05-07T07:48:38;14.20;99.90
52459;DHT22;38372;52.902;6.024;2023-05-07T07:51:04;14.30;99.90
52459;DHT22;38372;52.902;6.024;2023-05-07T07:53:30;14.40;99.90
52459;DHT22;38372;52.902;6.024;2023-05-07T07:55:56;14.60;99.90
52459;DHT22;38372;52.902;6.024;2023-05-07T07:58:26;14.60;99.90
52459;DHT22;38372;52.902;6.024;2023-05-07T08:00:52;14.70;99.90
52459;DHT22;38372;52.902;6.024;2023-05-07T08:03:20;14.80;99.90
52459;DHT22;38372;52.902;6.024;2023-05-07T08:05:45;14.90;99.90
52459;DHT22;38372;52.902;6.024;2023-05-07T08:08:11;15.10;99.90
52459;DHT22;38372;52.902;6.024;2023-05-07T08:10:37;15.20;99.90
52459;DHT22;38372;52.902;6.024;2023-05-07T08:13:06;15.30;99.90
52459;DHT22;38372;52.902;6.024;2023-05-07T08:15:32;15.40;99.90
52459;DHT22;38372;52.902;6.024;2023-05-07T08:17:58;15.50;99.90
52459;DHT22;38372;52.902;6.024;2023-05-07T08:20:25;15.60;99.90
52459;DHT22;38372;52.902;6.024;2023-05-07T08:22:51;15.80;99.90
52459;DHT22;38372;52.902;6.024;2023-05-07T08:25:17;15.80;99.90
52459;DHT22;38372;52.902;6.024;2023-05-07T08:27:43;15.90;99.90
52459;DHT22;38372;52.902;6.024;2023-05-07T08:30:10;15.90;99.90
52459;DHT22;38372;52.902;6.024;2023-05-07T08:32:36;16.10;99.90
52459;DHT22;38372;52.902;6.024;2023-05-07T08:35:02;16.20;99.90
52459;DHT22;38372;52.902;6.024;2023-05-07T08:37:28;16.40;99.90
52459;DHT22;38372;52.902;6.024;2023-05-07T08:39:54;16.50;99.90
52459;DHT22;38372;52.902;6.024;2023-05-07T08:42:21;16.50;99.90
52459;DHT22;38372;52.902;6.024;2023-05-07T08:44:51;16.60;99.90
52459;DHT22;38372;52.902;6.024;2023-05-07T08:47:18;16.70;99.90
52459;DHT22;38372;52.902;6.024;2023-05-07T08:49:45;16.70;99.90
52459;DHT22;38372;52.902;6.024;2023-05-07T08:52:12;16.80;99.90
52459;DHT22;38372;52.902;6.024;2023-05-07T08:54:38;16.90;99.90
52459;DHT22;38372;52.902;6.024;2023-05-07T08:57:04;17.10;99.90
52459;DHT22;38372;52.902;6.024;2023-05-07T08:59:30;17.20;99.90
52459;DHT22;38372;52.902;6.024;2023-05-07T09:01:56;17.20;99.90
52459;DHT22;38372;52.902;6.024;2023-05-07T09:04:22;17.10;99.90
52459;DHT22;38372;52.902;6.024;2023-05-07T09:06:47;17.10;99.90
52459;DHT22;38372;52.902;6.024;2023-05-07T09:09:17;17.10;99.90
52459;DHT22;38372;52.902;6.024;2023-05-07T09:11:46;17.10;99.90
52459;DHT22;38372;52.902;6.024;2023-05-07T09:14:12;17.20;99.90
52459;DHT22;38372;52.902;6.024;2023-05-07T09:16:38;17.20;99.90
52459;DHT22;38372;52.902;6.024;2023-05-07T09:19:04;17.30;99.90
52459;DHT22;38372;52.902;6.024;2023-05-07T09:21:30;17.40;99.90
52459;DHT22;38372;52.902;6.024;2023-05-07T09:23:56;17.50;99.90
52459;DHT22;38372;52.902;6.024;2023-05-07T09:26:22;17.70;99.90
52459;DHT22;38372;52.902;6.024;2023-05-07T09:28:48;17.80;99.90
52459;DHT22;38372;52.902;6.024;2023-05-07T09:31:14;17.80;99.90
52459;DHT22;38372;52.902;6.024;2023-05-07T09:33:40;17.90;99.90
52459;DHT22;38372;52.902;6.024;2023-05-07T09:36:07;18.10;99.90
52459;DHT22;38372;52.902;6.024;2023-05-07T09:38:34;18.20;99.90
52459;DHT22;38372;52.902;6.024;2023-05-07T09:41:09;18.30;99.90
52459;DHT22;38372;52.902;6.024;2023-05-07T09:43:36;18.30;99.90
52459;DHT22;38372;52.902;6.024;2023-05-07T09:46:03;18.20;99.90
52459;DHT22;38372;52.902;6.024;2023-05-07T09:48:33;18.10;99.90
52459;DHT22;38372;52.902;6.024;2023-05-07T09:51:02;18.00;99.90
52459;DHT22;38372;52.902;6.024;2023-05-07T09:53:29;18.00;99.90
52459;DHT22;38372;52.902;6.024;2023-05-07T09:55:57;18.00;99.90
52459;DHT22;38372;52.902;6.024;2023-05-07T09:58:24;18.00;99.90
52459;DHT22;38372;52.902;6.024;2023-05-07T10:00:51;18.00;99.90
52459;DHT22;38372;52.902;6.024;2023-05-07T10:03:19;18.10;99.90
52459;DHT22;38372;52.902;6.024;2023-05-07T10:05:46;18.30;99.90
52459;DHT22;38372;52.902;6.024;2023-05-07T10:08:13;18.50;99.90
52459;DHT22;38372;52.902;6.024;2023-05-07T10:10:42;18.60;99.90
52459;DHT22;38372;52.902;6.024;2023-05-07T10:13:10;18.70;99.90
52459;DHT22;38372;52.902;6.024;2023-05-07T10:15:37;18.80;99.90
52459;DHT22;38372;52.902;6.024;2023-05-07T10:18:06;19.00;99.90
52459;DHT22;38372;52.902;6.024;2023-05-07T10:20:33;19.00;99.90
52459;DHT22;38372;52.902;6.024;2023-05-07T10:23:04;19.20;99.90
52459;DHT22;38372;52.902;6.024;2023-05-07T10:25:32;19.60;99.90
52459;DHT22;38372;52.902;6.024;2023-05-07T10:28:08;19.90;99.90
52459;DHT22;38372;52.902;6.024;2023-05-07T10:33:25;20.50;99.90
52459;DHT22;38372;52.902;6.024;2023-05-07T10:35:57;20.90;99.90
52459;DHT22;38372;52.902;6.024;2023-05-07T10:38:24;21.20;99.90
52459;DHT22;38372;52.902;6.024;2023-05-07T10:40:51;21.50;99.90
52459;DHT22;38372;52.902;6.024;2023-05-07T10:43:17;21.60;99.90
52459;DHT22;38372;52.902;6.024;2023-05-07T10:45:43;21.70;99.90
52459;DHT22;38372;52.902;6.024;2023-05-07T10:48:13;21.60;99.90
52459;DHT22;38372;52.902;6.024;2023-05-07T10:50:43;21.70;99.90
52459;DHT22;38372;52.902;6.024;2023-05-07T10:58:35;21.40;99.90
52459;DHT22;38372;52.902;6.024;2023-05-07T11:01:03;21.50;99.90
52459;DHT22;38372;52.902;6.024;2023-05-07T11:03:29;21.60;99.90
52459;DHT22;38372;52.902;6.024;2023-05-07T11:06:15;21.60;99.90
52459;DHT22;38372;52.902;6.024;2023-05-07T11:08:58;21.70;99.90
52459;DHT22;38372;52.902;6.024;2023-05-07T11:11:47;21.70;99.90
52459;DHT22;38372;52.902;6.024;2023-05-07T11:14:14;21.70;99.90
52459;DHT22;38372;52.902;6.024;2023-05-07T11:17:03;21.70;99.90
52459;DHT22;38372;52.902;6.024;2023-05-07T11:19:51;21.50;99.90
52459;DHT22;38372;52.902;6.024;2023-05-07T11:25:02;21.10;99.90
52459;DHT22;38372;52.902;6.024;2023-05-07T11:27:28;20.90;99.90
52459;DHT22;38372;52.902;6.024;2023-05-07T11:29:54;20.80;99.90
52459;DHT22;38372;52.902;6.024;2023-05-07T11:32:27;20.60;99.90
52459;DHT22;38372;52.902;6.024;2023-05-07T11:34:54;20.40;99.90
52459;DHT22;38372;52.902;6.024;2023-05-07T11:37:21;20.30;99.90
52459;DHT22;38372;52.902;6.024;2023-05-07T11:39:48;20.30;99.90
52459;DHT22;38372;52.902;6.024;2023-05-07T11:42:31;20.30;99.90
52459;DHT22;38372;52.902;6.024;2023-05-07T11:44:57;20.30;99.90
52459;DHT22;38372;52.902;6.024;2023-05-07T11:47:24;20.20;99.90
52459;DHT22;38372;52.902;6.024;2023-05-07T11:49:54;20.10;99.90
52459;DHT22;38372;52.902;6.024;2023-05-07T11:52:22;20.10;99.90
52459;DHT22;38372;52.902;6.024;2023-05-07T11:54:53;20.10;99.90
52459;DHT22;38372;52.902;6.024;2023-05-07T11:57:20;20.10;99.90
52459;DHT22;38372;52.902;6.024;2023-05-07T11:59:46;20.00;99.90
52459;DHT22;38372;52.902;6.024;2023-05-07T12:02:16;20.00;99.90
52459;DHT22;38372;52.902;6.024;2023-05-07T12:04:42;20.00;99.90
52459;DHT22;38372;52.902;6.024;2023-05-07T12:07:12;19.90;99.90
52459;DHT22;38372;52.902;6.024;2023-05-07T12:09:40;19.90;99.90
52459;DHT22;38372;52.902;6.024;2023-05-07T12:12:06;20.00;99.90
52459;DHT22;38372;52.902;6.024;2023-05-07T12:14:32;20.10;99.90
52459;DHT22;38372;52.902;6.024;2023-05-07T12:17:00;20.30;99.90
52459;DHT22;38372;52.902;6.024;2023-05-07T12:19:29;20.40;99.90
52459;DHT22;38372;52.902;6.024;2023-05-07T12:21:56;20.50;99.90
52459;DHT22;38372;52.902;6.024;2023-05-07T12:24:22;20.50;99.90
52459;DHT22;38372;52.902;6.024;2023-05-07T12:26:48;20.60;99.90
52459;DHT22;38372;52.902;6.024;2023-05-07T12:29:15;20.80;99.90
52459;DHT22;38372;52.902;6.024;2023-05-07T12:31:43;21.00;99.90
52459;DHT22;38372;52.902;6.024;2023-05-07T12:34:11;21.20;99.90
52459;DHT22;38372;52.902;6.024;2023-05-07T12:36:38;21.30;99.90
52459;DHT22;38372;52.902;6.024;2023-05-07T12:39:08;21.30;99.90
52459;DHT22;38372;52.902;6.024;2023-05-07T12:41:53;21.30;99.90
52459;DHT22;38372;52.902;6.024;2023-05-07T12:44:22;21.20;99.90
52459;DHT22;38372;52.902;6.024;2023-05-07T12:46:49;21.00;99.90
52459;DHT22;38372;52.902;6.024;2023-05-07T12:49:15;20.90;99.90
52459;DHT22;38372;52.902;6.024;2023-05-07T12:51:41;20.80;99.90
52459;DHT22;38372;52.902;6.024;2023-05-07T12:54:06;20.70;99.90
52459;DHT22;38372;52.902;6.024;2023-05-07T12:56:35;20.80;99.90
52459;DHT22;38372;52.902;6.024;2023-05-07T12:59:02;20.90;99.90
52459;DHT22;38372;52.902;6.024;2023-05-07T13:01:33;20.90;99.90
52459;DHT22;38372;52.902;6.024;2023-05-07T13:04:03;20.90;99.90
52459;DHT22;38372;52.902;6.024;2023-05-07T13:06:30;21.00;99.90
52459;DHT22;38372;52.902;6.024;2023-05-07T13:08:56;21.00;99.90
52459;DHT22;38372;52.902;6.024;2023-05-07T13:11:22;20.90;99.90
52459;DHT22;38372;52.902;6.024;2023-05-07T13:13:48;20.90;99.90
52459;DHT22;38372;52.902;6.024;2023-05-07T13:16:14;20.80;99.90
52459;DHT22;38372;52.902;6.024;2023-05-07T13:18:40;20.80;99.90
52459;DHT22;38372;52.902;6.024;2023-05-07T13:21:06;20.80;99.90
52459;DHT22;38372;52.902;6.024;2023-05-07T13:23:32;20.70;99.90
52459;DHT22;38372;52.902;6.024;2023-05-07T13:25:58;20.70;99.90
52459;DHT22;38372;52.902;6.024;2023-05-07T13:28:24;20.90;99.90
52459;DHT22;38372;52.902;6.024;2023-05-07T13:30:50;21.00;99.90
52459;DHT22;38372;52.902;6.024;2023-05-07T13:33:17;21.00;99.90
52459;DHT22;38372;52.902;6.024;2023-05-07T13:35:43;21.00;99.90
52459;DHT22;38372;52.902;6.024;2023-05-07T13:38:09;20.90;99.90
52459;DHT22;38372;52.902;6.024;2023-05-07T13:40:35;20.90;99.90
52459;DHT22;38372;52.902;6.024;2023-05-07T13:43:01;20.80;99.90
52459;DHT22;38372;52.902;6.024;2023-05-07T13:45:28;20.80;99.90
52459;DHT22;38372;52.902;6.024;2023-05-07T13:47:57;20.90;99.90
52459;DHT22;38372;52.902;6.024;2023-05-07T13:50:23;20.80;99.90
52459;DHT22;38372;52.902;6.024;2023-05-07T13:52:49;20.80;99.90
52459;DHT22;38372;52.902;6.024;2023-05-07T13:55:18;20.90;99.90
52459;DHT22;38372;52.902;6.024;2023-05-07T13:57:45;21.00;99.90
52459;DHT22;38372;52.902;6.024;2023-05-07T14:00:11;21.10;99.90
52459;DHT22;38372;52.902;6.024;2023-05-07T14:02:37;21.10;99.90
52459;DHT22;38372;52.902;6.024;2023-05-07T14:05:03;21.00;99.90
52459;DHT22;38372;52.902;6.024;2023-05-07T14:07:29;21.00;99.90
52459;DHT22;38372;52.902;6.024;2023-05-07T14:09:56;21.10;99.90
52459;DHT22;38372;52.902;6.024;2023-05-07T14:12:22;21.20;99.90
52459;DHT22;38372;52.902;6.024;2023-05-07T14:14:48;21.50;99.90
52459;DHT22;38372;52.902;6.024;2023-05-07T14:17:16;21.60;99.90
52459;DHT22;38372;52.902;6.024;2023-05-07T14:19:44;21.90;99.90
52459;DHT22;38372;52.902;6.024;2023-05-07T14:22:10;21.90;99.90
52459;DHT22;38372;52.902;6.024;2023-05-07T14:24:36;21.80;99.90
52459;DHT22;38372;52.902;6.024;2023-05-07T14:27:01;21.70;99.90
52459;DHT22;38372;52.902;6.024;2023-05-07T14:29:28;21.60;99.90
52459;DHT22;38372;52.902;6.024;2023-05-07T14:31:53;21.40;99.90
52459;DHT22;38372;52.902;6.024;2023-05-07T14:34:19;21.20;99.90
52459;DHT22;38372;52.902;6.024;2023-05-07T14:36:45;21.20;99.90
52459;DHT22;38372;52.902;6.024;2023-05-07T14:39:11;21.60;99.90
52459;DHT22;38372;52.902;6.024;2023-05-07T14:41:37;22.30;99.90
52459;DHT22;38372;52.902;6.024;2023-05-07T14:44:03;22.40;99.90
52459;DHT22;38372;52.902;6.024;2023-05-07T14:46:29;22.10;99.90
52459;DHT22;38372;52.902;6.024;2023-05-07T14:48:56;22.10;99.90
52459;DHT22;38372;52.902;6.024;2023-05-07T14:51:22;22.10;99.90
52459;DHT22;38372;52.902;6.024;2023-05-07T14:53:50;22.00;99.90
52459;DHT22;38372;52.902;6.024;2023-05-07T14:56:16;21.80;99.90
52459;DHT22;38372;52.902;6.024;2023-05-07T14:58:43;21.90;99.90
52459;DHT22;38372;52.902;6.024;2023-05-07T15:01:08;21.70;99.90
52459;DHT22;38372;52.902;6.024;2023-05-07T15:03:34;21.20;99.90
52459;DHT22;38372;52.902;6.024;2023-05-07T15:06:01;20.90;99.90
52459;DHT22;38372;52.902;6.024;2023-05-07T15:08:27;20.70;99.90
52459;DHT22;38372;52.902;6.024;2023-05-07T15:10:52;20.60;99.90
52459;DHT22;38372;52.902;6.024;2023-05-07T15:13:18;20.50;99.90
52459;DHT22;38372;52.902;6.024;2023-05-07T15:15:44;20.30;99.90
52459;DHT22;38372;52.902;6.024;2023-05-07T15:18:10;20.20;99.90
52459;DHT22;38372;52.902;6.024;2023-05-07T15:20:36;20.20;99.90
52459;DHT22;38372;52.902;6.024;2023-05-07T15:23:02;20.10;99.90
52459;DHT22;38372;52.902;6.024;2023-05-07T15:25:31;20.10;99.90
52459;DHT22;38372;52.902;6.024;2023-05-07T15:27:58;20.00;99.90
52459;DHT22;38372;52.902;6.024;2023-05-07T15:30:24;20.00;99.90
52459;DHT22;38372;52.902;6.024;2023-05-07T15:32:50;19.90;99.90
52459;DHT22;38372;52.902;6.024;2023-05-07T15:35:16;19.90;99.90
52459;DHT22;38372;52.902;6.024;2023-05-07T15:37:47;19.90;99.90